createdAt,value
2023-09-18T00:00:31.673Z,6.38
2023-09-18T00:03:34.190Z,6.50
2023-09-18T00:06:36.548Z,6.80
2023-09-18T00:09:38.770Z,6.47
2023-09-18T00:12:41.798Z,6.55
2023-09-18T00:15:47.843Z,6.00
2023-09-18T00:18:50.611Z,6.60
2023-09-18T00:21:54.025Z,6.88
2023-09-18T00:24:56.337Z,6.40
2023-09-18T00:27:58.595Z,6.55
2023-09-18T00:31:00.724Z,6.65
2023-09-18T00:34:03.076Z,6.10
2023-09-18T00:37:05.379Z,6.63
2023-09-18T00:40:08.581Z,6.47
2023-09-18T00:43:12.012Z,5.97
2023-09-18T00:46:14.626Z,5.97
2023-09-18T00:49:20.123Z,6.00
2023-09-18T00:52:24.096Z,6.82
2023-09-18T00:55:26.560Z,6.43
2023-09-18T00:58:29.544Z,6.50
2023-09-18T01:01:33.244Z,7.25
2023-09-18T01:04:35.804Z,6.63
2023-09-18T01:07:38.127Z,6.50
2023-09-18T01:11:02.110Z,7.30
2023-09-18T01:14:25.633Z,6.95
2023-09-18T01:17:28.375Z,6.40
2023-09-18T01:20:31.040Z,6.67
2023-09-18T01:23:33.485Z,7.53
2023-09-18T01:26:36.108Z,6.93
2023-09-18T01:29:38.484Z,6.63
2023-09-18T01:32:42.062Z,6.93
2023-09-18T01:35:46.899Z,6.77
2023-09-18T01:38:51.302Z,6.90
2023-09-18T01:41:53.967Z,7.22
2023-09-18T01:44:56.679Z,6.82
2023-09-18T01:47:59.169Z,6.90
2023-09-18T01:51:01.528Z,7.60
2023-09-18T01:54:04.862Z,8.10
2023-09-18T01:57:08.615Z,6.85
2023-09-18T02:00:11.610Z,7.75
2023-09-18T02:03:20.263Z,7.05
2023-09-18T02:06:41.929Z,7.50
2023-09-18T02:09:45.880Z,7.40
2023-09-18T02:12:47.914Z,7.93
2023-09-18T02:15:50.260Z,7.80
2023-09-18T02:18:56.515Z,7.53
2023-09-18T02:21:59.022Z,7.93
2023-09-18T02:25:01.304Z,7.80
2023-09-18T02:28:03.932Z,7.40
2023-09-18T02:31:06.568Z,7.78
2023-09-18T02:34:10.244Z,7.55
2023-09-18T02:37:14.474Z,7.87
2023-09-18T02:40:17.350Z,7.60
2023-09-18T02:43:19.569Z,8.05
2023-09-18T02:46:22.146Z,7.30
2023-09-18T02:49:24.516Z,8.88
2023-09-18T02:52:26.720Z,7.47
2023-09-18T02:55:29.341Z,7.30
2023-09-18T02:58:31.692Z,7.88
2023-09-18T03:01:34.008Z,8.10
2023-09-18T03:04:36.426Z,7.97
2023-09-18T03:07:40.564Z,7.87
2023-09-18T03:10:44.807Z,8.38
2023-09-18T03:13:48.357Z,8.32
2023-09-18T03:16:53.269Z,7.38
2023-09-18T03:19:55.743Z,7.43
2023-09-18T03:22:59.977Z,7.93
2023-09-18T03:26:02.452Z,7.15
2023-09-18T03:29:05.348Z,8.82
2023-09-18T03:32:07.741Z,8.32
2023-09-18T03:35:18.849Z,8.15
2023-09-18T03:38:22.603Z,7.40
2023-09-18T03:41:25.199Z,7.57
2023-09-18T03:44:27.823Z,8.43
2023-09-18T03:47:30.317Z,8.35
2023-09-18T03:50:32.595Z,8.15
2023-09-18T03:53:35.269Z,8.43
2023-09-18T03:56:37.611Z,7.75
2023-09-18T03:59:40.001Z,8.82
2023-09-18T04:02:42.380Z,8.18
2023-09-18T04:05:44.770Z,8.40
2023-09-18T04:08:46.853Z,7.60
2023-09-18T04:11:49.188Z,8.27
2023-09-18T04:14:52.301Z,8.23
2023-09-18T04:17:54.766Z,8.05
2023-09-18T04:20:56.962Z,7.95
2023-09-18T04:23:59.870Z,8.90
2023-09-18T04:27:02.644Z,9.20
2023-09-18T04:30:06.235Z,8.50
2023-09-18T04:33:08.930Z,8.80
2023-09-18T04:36:11.122Z,8.32
2023-09-18T04:39:15.312Z,8.33
2023-09-18T04:42:18.178Z,7.15
2023-09-18T04:45:21.039Z,8.18
2023-09-18T04:48:23.324Z,8.55
2023-09-18T04:51:25.992Z,8.45
2023-09-18T04:54:28.121Z,7.97
2023-09-18T04:57:30.530Z,7.78
2023-09-18T05:00:33.013Z,8.68
2023-09-18T05:03:36.698Z,8.40
2023-09-18T05:06:40.639Z,8.70
2023-09-18T05:09:43.231Z,8.70
2023-09-18T05:12:45.711Z,7.97
2023-09-18T05:15:48.124Z,8.32
2023-09-18T05:18:50.792Z,8.73
2023-09-18T05:21:53.470Z,8.00
2023-09-18T05:24:55.781Z,8.73
2023-09-18T05:28:00.945Z,8.20
2023-09-18T05:31:03.442Z,8.50
2023-09-18T05:34:05.788Z,7.47
2023-09-18T05:37:07.842Z,8.13
2023-09-18T05:40:11.862Z,6.73
2023-09-18T05:43:13.916Z,7.78
2023-09-18T05:46:16.314Z,7.53
2023-09-18T05:49:19.695Z,6.78
2023-09-18T05:52:23.687Z,7.50
2023-09-18T05:55:25.961Z,7.57
2023-09-18T05:58:29.058Z,6.83
2023-09-18T06:01:31.368Z,6.63
2023-09-18T06:04:33.673Z,7.00
2023-09-18T06:07:35.852Z,6.78
2023-09-18T06:10:38.469Z,6.80
2023-09-18T06:13:40.883Z,6.47
2023-09-18T06:16:43.014Z,6.68
2023-09-18T06:19:46.669Z,6.38
2023-09-18T06:22:49.067Z,6.68
2023-09-18T06:25:57.227Z,6.70
2023-09-18T06:28:59.316Z,6.47
2023-09-18T06:32:02.155Z,6.75
2023-09-18T06:35:04.845Z,6.50
2023-09-18T06:38:07.939Z,7.03
2023-09-18T06:41:10.424Z,6.77
2023-09-18T06:44:12.911Z,7.30
2023-09-18T06:47:18.021Z,6.90
2023-09-18T06:50:20.709Z,6.60
2023-09-18T06:53:22.968Z,6.43
2023-09-18T06:56:25.960Z,6.50
2023-09-18T06:59:30.106Z,6.37
2023-09-18T07:02:33.759Z,6.40
2023-09-18T07:05:36.357Z,6.40
2023-09-18T07:08:38.746Z,6.30
2023-09-18T07:11:41.033Z,6.40
2023-09-18T07:14:43.360Z,6.67
2023-09-18T07:17:45.962Z,6.35
2023-09-18T07:20:48.401Z,6.00
2023-09-18T07:23:51.703Z,7.13
2023-09-18T07:26:54.139Z,5.97
2023-09-18T07:29:58.308Z,7.10
2023-09-18T07:33:01.845Z,7.47
2023-09-18T07:36:05.269Z,6.57
2023-09-18T07:39:07.727Z,6.13
2023-09-18T07:42:10.122Z,6.43
2023-09-18T07:45:12.811Z,6.93
2023-09-18T07:48:14.839Z,6.47
2023-09-18T07:51:19.895Z,6.60
2023-09-18T07:54:22.436Z,6.40
2023-09-18T07:57:26.804Z,6.40
2023-09-18T08:00:29.284Z,6.57
2023-09-18T08:03:31.742Z,6.80
2023-09-18T08:06:34.059Z,6.15
2023-09-18T08:09:37.573Z,6.28
2023-09-18T08:12:39.678Z,6.00
2023-09-18T08:15:42.058Z,6.80
2023-09-18T08:18:45.047Z,6.63
2023-09-18T08:21:48.699Z,6.80
2023-09-18T08:24:53.801Z,5.97
2023-09-18T08:27:56.035Z,6.77
2023-09-18T08:31:00.013Z,6.20
2023-09-18T08:34:02.308Z,6.30
2023-09-18T08:37:05.347Z,6.40
2023-09-18T08:40:11.375Z,6.18
2023-09-18T08:43:16.429Z,6.17
2023-09-18T08:46:18.953Z,6.30
2023-09-18T08:49:24.069Z,6.35
2023-09-18T08:52:27.706Z,5.78
2023-09-18T08:55:30.362Z,6.00
2023-09-18T08:58:36.825Z,5.93
2023-09-18T09:01:39.112Z,6.00
2023-09-18T09:04:41.422Z,5.60
2023-09-18T09:07:43.613Z,6.45
2023-09-18T09:10:45.990Z,6.43
2023-09-18T09:13:48.328Z,5.60
2023-09-18T09:16:52.117Z,5.57
2023-09-18T09:20:10.311Z,7.03
2023-09-18T09:23:12.816Z,6.43
2023-09-18T09:26:17.346Z,6.45
2023-09-18T09:29:22.283Z,5.90
2023-09-18T09:32:24.577Z,5.50
2023-09-18T09:35:29.033Z,5.70
2023-09-18T09:38:35.484Z,5.45
2023-09-18T09:41:37.835Z,5.93
2023-09-18T09:44:42.212Z,5.77
2023-09-18T09:47:44.719Z,6.20
2023-09-18T09:50:49.913Z,6.35
2023-09-18T09:53:52.838Z,5.75
2023-09-18T09:56:55.329Z,6.07
2023-09-18T10:00:23.696Z,6.23
2023-09-18T10:03:27.128Z,5.87
2023-09-18T10:06:33.364Z,6.20
2023-09-18T10:09:37.375Z,5.63
2023-09-18T10:12:40.733Z,6.03
2023-09-18T10:15:44.753Z,5.90
2023-09-18T10:19:10.304Z,5.27
2023-09-18T10:22:27.870Z,6.25
2023-09-18T10:25:32.616Z,5.88
2023-09-18T10:28:35.238Z,5.90
2023-09-18T10:31:38.484Z,6.10
2023-09-18T10:34:42.762Z,5.87
2023-09-18T10:37:46.289Z,6.20
2023-09-18T10:40:49.038Z,6.13
2023-09-18T10:43:54.680Z,5.95
2023-09-18T10:46:57.094Z,5.87
2023-09-18T10:49:59.389Z,5.77
2023-09-18T10:53:01.836Z,6.53
2023-09-18T10:56:05.577Z,6.32
2023-09-18T10:59:08.770Z,5.55
2023-09-18T11:02:11.812Z,5.70
2023-09-18T11:05:14.247Z,6.00
2023-09-18T11:08:30.748Z,6.03
2023-09-18T11:11:36.925Z,5.57
2023-09-18T11:14:59.192Z,6.35
2023-09-18T11:18:09.120Z,6.13
2023-09-18T11:21:13.590Z,6.17
2023-09-18T11:24:21.183Z,6.03
2023-09-18T11:27:26.503Z,5.90
2023-09-18T11:30:30.183Z,5.80
2023-09-18T11:33:40.478Z,6.20
2023-09-18T11:36:43.436Z,6.23
2023-09-18T11:39:46.663Z,6.05
2023-09-18T11:43:20.215Z,6.35
2023-09-18T11:46:23.244Z,6.10
2023-09-18T11:49:29.093Z,5.47
2023-09-18T11:52:32.625Z,6.40
2023-09-18T11:55:35.750Z,6.15
2023-09-18T11:58:52.183Z,6.25
2023-09-18T12:02:01.199Z,6.47
2023-09-18T12:05:11.860Z,6.87
2023-09-18T12:08:14.026Z,6.50
2023-09-18T12:11:20.419Z,6.60
2023-09-18T12:14:23.400Z,6.95
2023-09-18T12:17:25.825Z,7.28
2023-09-18T12:20:27.999Z,7.00
2023-09-18T12:23:33.570Z,6.60
2023-09-18T12:26:35.642Z,6.85
2023-09-18T12:29:38.032Z,6.72
2023-09-18T12:32:40.677Z,6.82
2023-09-18T12:35:43.591Z,7.17
2023-09-18T12:38:56.088Z,6.83
2023-09-18T12:41:58.871Z,6.80
2023-09-18T12:45:01.232Z,6.97
2023-09-18T12:48:04.982Z,7.10
2023-09-18T12:51:07.419Z,6.27
2023-09-18T12:54:10.058Z,6.13
2023-09-18T12:57:17.200Z,6.28
2023-09-18T13:00:27.802Z,6.28
2023-09-18T13:03:30.704Z,6.80
2023-09-18T13:06:33.157Z,6.33
2023-09-18T13:09:36.382Z,7.03
2023-09-18T13:12:54.821Z,6.07
2023-09-18T13:16:05.388Z,6.30
2023-09-18T13:19:08.460Z,7.18
2023-09-18T13:22:10.529Z,6.90
2023-09-18T13:25:12.605Z,6.30
2023-09-18T13:28:15.653Z,6.90
2023-09-18T13:31:19.414Z,6.65
2023-09-18T13:34:23.087Z,6.90
2023-09-18T13:37:25.213Z,6.60
2023-09-18T13:40:27.258Z,6.63
2023-09-18T13:43:33.739Z,6.50
2023-09-18T13:46:37.336Z,6.72
2023-09-18T13:49:39.583Z,7.30
2023-09-18T13:52:41.833Z,6.97
2023-09-18T13:55:44.206Z,6.53
2023-09-18T13:58:46.396Z,7.28
2023-09-18T14:01:48.904Z,6.72
2023-09-18T14:04:51.876Z,7.18
2023-09-18T14:07:58.673Z,7.43
2023-09-18T14:11:00.876Z,7.23
2023-09-18T14:14:03.618Z,6.78
2023-09-18T14:17:05.678Z,7.07
2023-09-18T14:20:08.508Z,7.45
2023-09-18T14:23:11.042Z,7.20
2023-09-18T14:26:13.327Z,7.03
2023-09-18T14:29:17.212Z,7.25
2023-09-18T14:32:19.228Z,6.60
2023-09-18T14:35:21.501Z,6.80
2023-09-18T14:38:23.558Z,6.77
2023-09-18T14:41:27.478Z,7.20
2023-09-18T14:44:29.574Z,7.20
2023-09-18T14:47:32.256Z,6.72
2023-09-18T14:50:34.811Z,6.82
2023-09-18T14:53:38.642Z,6.80
2023-09-18T14:56:40.878Z,6.37
2023-09-18T14:59:48.368Z,7.13
2023-09-18T15:02:50.968Z,7.32
2023-09-18T15:05:54.483Z,6.93
2023-09-18T15:08:56.733Z,6.80
2023-09-18T15:11:58.944Z,7.70
2023-09-18T15:15:01.247Z,6.75
2023-09-18T15:18:03.540Z,6.95
2023-09-18T15:21:06.166Z,7.80
2023-09-18T15:24:09.693Z,6.90
2023-09-18T15:27:11.717Z,6.27
2023-09-18T15:30:16.135Z,7.05
2023-09-18T15:33:18.704Z,6.53
2023-09-18T15:36:20.747Z,6.97
2023-09-18T15:39:23.668Z,6.33
2023-09-18T15:42:25.992Z,6.93
2023-09-18T15:45:28.231Z,6.95
2023-09-18T15:48:30.696Z,6.55
2023-09-18T15:51:32.663Z,5.97
2023-09-18T15:54:34.677Z,7.03
2023-09-18T15:57:39.782Z,7.63
2023-09-18T16:00:43.825Z,6.40
2023-09-18T16:03:48.660Z,6.60
2023-09-18T16:06:51.686Z,6.90
2023-09-18T16:09:56.525Z,7.13
2023-09-18T16:12:58.467Z,6.80
2023-09-18T16:16:02.396Z,6.68
2023-09-18T16:19:04.641Z,6.00
2023-09-18T16:22:06.917Z,6.70
2023-09-18T16:25:09.936Z,7.07
2023-09-18T16:28:12.035Z,6.83
2023-09-18T16:31:14.149Z,6.78
2023-09-18T16:34:16.615Z,6.90
2023-09-18T16:37:18.593Z,6.63
2023-09-18T16:40:22.370Z,6.77
2023-09-18T16:43:24.919Z,6.57
2023-09-18T16:46:27.034Z,7.72
2023-09-18T16:49:29.395Z,12.40
2023-09-18T16:52:32.134Z,9.60
2023-09-18T16:55:34.543Z,7.47
2023-09-18T16:58:37.139Z,6.03
2023-09-18T17:01:39.732Z,6.70
2023-09-18T17:04:51.220Z,6.30
2023-09-18T17:07:54.174Z,6.68
2023-09-18T17:10:58.134Z,6.93
2023-09-18T17:14:01.902Z,6.37
2023-09-18T17:17:04.394Z,6.43
2023-09-18T17:20:08.314Z,6.15
2023-09-18T17:23:10.793Z,6.30
2023-09-18T17:26:13.362Z,6.20
2023-09-18T17:29:15.886Z,6.40
2023-09-18T17:32:18.716Z,7.85
2023-09-18T17:35:21.900Z,7.10
2023-09-18T17:38:26.007Z,6.50
2023-09-18T17:41:29.866Z,6.63
2023-09-18T17:44:33.420Z,6.73
2023-09-18T17:47:38.310Z,6.68
2023-09-18T17:50:40.906Z,6.03
2023-09-18T17:53:43.833Z,5.70
2023-09-18T17:56:47.104Z,6.40
2023-09-18T17:59:50.625Z,7.33
2023-09-18T18:02:53.427Z,5.82
2023-09-18T18:05:57.463Z,5.85
2023-09-18T18:09:00.954Z,6.47
2023-09-18T18:12:06.026Z,6.00
2023-09-18T18:15:11.211Z,5.87
2023-09-18T18:18:14.418Z,6.32
2023-09-18T18:21:16.813Z,6.38
2023-09-18T18:24:19.031Z,6.05
2023-09-18T18:27:21.216Z,6.37
2023-09-18T18:30:23.519Z,6.20
2023-09-18T18:33:26.097Z,6.43
2023-09-18T18:36:28.915Z,5.13
2023-09-18T18:39:31.648Z,6.10
2023-09-18T18:42:33.959Z,6.20
2023-09-18T18:45:36.264Z,5.70
2023-09-18T18:48:38.343Z,5.82
2023-09-18T18:51:40.502Z,5.57
2023-09-18T18:54:44.047Z,5.70
2023-09-18T18:57:46.322Z,5.43
2023-09-18T19:00:49.034Z,5.57
2023-09-18T19:03:51.836Z,5.28
2023-09-18T19:06:53.842Z,5.22
2023-09-18T19:09:59.435Z,4.95
2023-09-18T19:13:02.221Z,5.00
2023-09-18T19:16:04.582Z,4.70
2023-09-18T19:19:07.101Z,4.60
2023-09-18T19:22:09.122Z,4.93
2023-09-18T19:25:11.581Z,4.65
2023-09-18T19:28:13.911Z,4.63
2023-09-18T19:31:22.663Z,5.77
2023-09-18T19:34:25.168Z,5.88
2023-09-18T19:37:27.412Z,5.00
2023-09-18T19:40:32.646Z,5.13
2023-09-18T19:43:34.752Z,5.10
2023-09-18T19:46:36.815Z,4.73
2023-09-18T19:49:38.904Z,5.05
2023-09-18T19:52:41.187Z,4.65
2023-09-18T19:55:43.211Z,5.10
2023-09-18T19:58:46.839Z,4.73
2023-09-18T20:01:49.319Z,4.83
2023-09-18T20:04:52.299Z,4.70
2023-09-18T20:07:54.640Z,4.97
2023-09-18T20:11:00.306Z,5.28
2023-09-18T20:14:11.100Z,4.40
2023-09-18T20:17:19.491Z,4.57
2023-09-18T20:20:21.780Z,4.45
2023-09-18T20:23:23.994Z,4.80
2023-09-18T20:26:26.020Z,4.80
2023-09-18T20:29:28.074Z,4.90
2023-09-18T20:32:30.150Z,4.33
2023-09-18T20:35:32.224Z,3.85
2023-09-18T20:38:34.374Z,4.15
2023-09-18T20:41:36.705Z,4.22
2023-09-18T20:44:39.052Z,3.50
2023-09-18T20:47:41.520Z,4.00
2023-09-18T20:50:43.755Z,4.13
2023-09-18T20:53:46.522Z,4.05
2023-09-18T20:56:48.748Z,4.25
2023-09-18T20:59:52.828Z,4.83
2023-09-18T21:02:55.235Z,4.67
2023-09-18T21:05:59.209Z,3.90
2023-09-18T21:09:01.390Z,4.20
2023-09-18T21:12:04.677Z,3.80
2023-09-18T21:15:08.702Z,3.90
2023-09-18T21:18:10.881Z,4.43
2023-09-18T21:21:17.417Z,4.43
2023-09-18T21:24:19.969Z,4.93
2023-09-18T21:27:22.622Z,4.43
2023-09-18T21:30:24.653Z,3.43
2023-09-18T21:33:27.012Z,3.70
2023-09-18T21:36:28.992Z,4.28
2023-09-18T21:39:30.909Z,3.35
2023-09-18T21:42:32.944Z,3.75
2023-09-18T21:45:35.194Z,3.57
2023-09-18T21:48:37.765Z,3.77
2023-09-18T21:51:40.065Z,3.53
2023-09-18T21:54:42.492Z,3.42
2023-09-18T21:57:44.768Z,3.95
2023-09-18T22:00:56.548Z,3.87
2023-09-18T22:03:58.907Z,3.90
2023-09-18T22:07:01.006Z,3.92
2023-09-18T22:10:05.190Z,3.90
2023-09-18T22:13:09.830Z,3.50
2023-09-18T22:16:12.223Z,4.00
2023-09-18T22:19:14.272Z,3.70
2023-09-18T22:22:16.671Z,3.58
2023-09-18T22:25:18.930Z,3.90
2023-09-18T22:38:45.059Z,4.00
2023-09-18T22:41:47.854Z,4.28
2023-09-18T22:45:27.649Z,4.25
2023-09-18T22:49:08.070Z,3.90
2023-09-18T22:52:47.585Z,4.37
2023-09-18T22:55:51.114Z,4.20
2023-09-18T22:58:53.613Z,4.40
2023-09-18T23:01:55.877Z,4.38
2023-09-18T23:04:59.260Z,3.63
2023-09-18T23:08:08.349Z,4.27
2023-09-18T23:11:11.172Z,4.80
2023-09-18T23:14:14.286Z,4.65
2023-09-18T23:17:22.154Z,4.25
2023-09-18T23:20:27.490Z,4.05
2023-09-18T23:23:29.872Z,4.37
2023-09-18T23:26:32.787Z,4.70
2023-09-18T23:29:35.069Z,4.47
2023-09-18T23:32:38.605Z,4.32
2023-09-18T23:35:40.939Z,4.00
2023-09-18T23:38:43.228Z,4.83
2023-09-18T23:41:53.151Z,4.37
2023-09-18T23:44:56.316Z,4.30
2023-09-18T23:48:06.364Z,4.05
2023-09-18T23:51:09.763Z,3.97
2023-09-18T23:54:12.013Z,4.00
2023-09-18T23:57:13.955Z,4.00
